Terminal Aerodrome Forecast
Issued by NWS

Home | Current Version | Previous Version | Graphics & Text | Print | Product List | Glossary Off
Versions: 1 2 3 4 5 6 7 8 9 10 11 12 13 14 15 16 17 18 19 20 21 22 23 24 25 26 27 28 29 30 31 32 33 34 35 36 37 38 39 40 41 42 43 44 45 46

425
FTUS43 KDDC 242320
TAFGCK
TAF
KGCK 242320Z 2500/2524 VRB06KT P6SM SCT070
     FM250400 VRB15KT P6SM VCTS OVC060CB
      TEMPO 2504/2506 VRB25G40KT 2SM TSRA OVC020CB
     FM250900 05012KT P6SM BKN150
     FM251600 11010KT P6SM SCT060=

USA.gov is the U.S. government's official web portal to all federal, state and local government web resources and services.